sensor_id;sensor_type;location;lat;lon;timestamp;temperature;humidity
3912;DHT22;1971;51.778;10.330;2022-11-15T00:01:52;9.70;23.70
3912;DHT22;1971;51.778;10.330;2022-11-15T00:04:41;9.70;22.50
3912;DHT22;1971;51.778;10.330;2022-11-15T00:07:30;9.70;22.60
3912;DHT22;1971;51.778;10.330;2022-11-15T00:10:40;9.70;21.90
3912;DHT22;1971;51.778;10.330;2022-11-15T00:13:29;9.50;24.20
3912;DHT22;1971;51.778;10.330;2022-11-15T00:16:19;9.50;23.80
3912;DHT22;1971;51.778;10.330;2022-11-15T00:19:10;9.70;22.80
3912;DHT22;1971;51.778;10.330;2022-11-15T00:22:00;9.70;20.30
3912;DHT22;1971;51.778;10.330;2022-11-15T00:24:48;9.60;25.20
3912;DHT22;1971;51.778;10.330;2022-11-15T00:27:39;9.70;30.50
3912;DHT22;1971;51.778;10.330;2022-11-15T00:30:30;9.60;30.70
3912;DHT22;1971;51.778;10.330;2022-11-15T00:33:20;9.60;32.10
3912;DHT22;1971;51.778;10.330;2022-11-15T00:36:12;9.50;35.40
3912;DHT22;1971;51.778;10.330;2022-11-15T00:39:02;9.70;33.90
3912;DHT22;1971;51.778;10.330;2022-11-15T00:41:52;9.60;35.00
3912;DHT22;1971;51.778;10.330;2022-11-15T00:44:40;9.70;33.40
3912;DHT22;1971;51.778;10.330;2022-11-15T00:47:29;9.70;32.50
3912;DHT22;1971;51.778;10.330;2022-11-15T00:50:19;9.70;44.00
3912;DHT22;1971;51.778;10.330;2022-11-15T00:53:11;9.70;48.40
3912;DHT22;1971;51.778;10.330;2022-11-15T00:56:00;9.70;47.20
3912;DHT22;1971;51.778;10.330;2022-11-15T00:58:49;9.70;47.90
3912;DHT22;1971;51.778;10.330;2022-11-15T01:01:39;9.70;59.20
3912;DHT22;1971;51.778;10.330;2022-11-15T01:04:27;9.70;69.20
3912;DHT22;1971;51.778;10.330;2022-11-15T01:07:16;9.70;71.50
3912;DHT22;1971;51.778;10.330;2022-11-15T01:10:09;9.80;73.80
3912;DHT22;1971;51.778;10.330;2022-11-15T01:12:59;9.80;73.30
3912;DHT22;1971;51.778;10.330;2022-11-15T01:15:47;9.80;73.10
3912;DHT22;1971;51.778;10.330;2022-11-15T01:18:36;9.80;74.30
3912;DHT22;1971;51.778;10.330;2022-11-15T01:21:27;9.80;70.10
3912;DHT22;1971;51.778;10.330;2022-11-15T01:24:16;9.80;67.90
3912;DHT22;1971;51.778;10.330;2022-11-15T01:27:08;9.80;59.30
3912;DHT22;1971;51.778;10.330;2022-11-15T01:29:57;9.80;58.20
3912;DHT22;1971;51.778;10.330;2022-11-15T01:32:47;9.80;53.90
3912;DHT22;1971;51.778;10.330;2022-11-15T01:35:39;9.80;54.70
3912;DHT22;1971;51.778;10.330;2022-11-15T01:38:28;9.80;54.10
3912;DHT22;1971;51.778;10.330;2022-11-15T01:41:23;9.80;53.40
3912;DHT22;1971;51.778;10.330;2022-11-15T01:44:42;9.80;52.30
3912;DHT22;1971;51.778;10.330;2022-11-15T01:47:33;9.80;57.30
3912;DHT22;1971;51.778;10.330;2022-11-15T01:50:26;9.80;59.80
3912;DHT22;1971;51.778;10.330;2022-11-15T01:53:17;9.80;62.10
3912;DHT22;1971;51.778;10.330;2022-11-15T01:56:11;9.80;63.50
3912;DHT22;1971;51.778;10.330;2022-11-15T01:59:05;9.80;62.30
3912;DHT22;1971;51.778;10.330;2022-11-15T02:01:59;9.90;64.80
3912;DHT22;1971;51.778;10.330;2022-11-15T02:04:49;9.90;66.20
3912;DHT22;1971;51.778;10.330;2022-11-15T02:07:38;9.90;69.60
3912;DHT22;1971;51.778;10.330;2022-11-15T02:10:27;9.90;72.80
3912;DHT22;1971;51.778;10.330;2022-11-15T02:13:16;9.90;78.60
3912;DHT22;1971;51.778;10.330;2022-11-15T02:16:11;10.00;67.80
3912;DHT22;1971;51.778;10.330;2022-11-15T02:19:15;10.00;63.10
3912;DHT22;1971;51.778;10.330;2022-11-15T02:25:29;10.00;70.50
3912;DHT22;1971;51.778;10.330;2022-11-15T02:28:48;10.20;68.30
3912;DHT22;1971;51.778;10.330;2022-11-15T02:31:48;9.90;62.80
3912;DHT22;1971;51.778;10.330;2022-11-15T02:34:45;10.00;66.60
3912;DHT22;1971;51.778;10.330;2022-11-15T02:37:44;9.90;57.10
3912;DHT22;1971;51.778;10.330;2022-11-15T02:40:38;9.80;53.80
3912;DHT22;1971;51.778;10.330;2022-11-15T02:43:32;9.70;56.20
3912;DHT22;1971;51.778;10.330;2022-11-15T02:46:38;9.70;64.80
3912;DHT22;1971;51.778;10.330;2022-11-15T02:49:45;9.60;69.30
3912;DHT22;1971;51.778;10.330;2022-11-15T02:52:35;9.70;62.60
3912;DHT22;1971;51.778;10.330;2022-11-15T02:55:28;9.70;59.20
3912;DHT22;1971;51.778;10.330;2022-11-15T03:01:43;9.70;65.40
3912;DHT22;1971;51.778;10.330;2022-11-15T03:04:41;9.60;68.60
3912;DHT22;1971;51.778;10.330;2022-11-15T03:07:38;9.60;62.80
3912;DHT22;1971;51.778;10.330;2022-11-15T03:10:37;9.60;65.60
3912;DHT22;1971;51.778;10.330;2022-11-15T03:13:34;9.50;66.50
3912;DHT22;1971;51.778;10.330;2022-11-15T03:16:28;9.40;68.00
3912;DHT22;1971;51.778;10.330;2022-11-15T03:19:23;9.50;78.10
3912;DHT22;1971;51.778;10.330;2022-11-15T03:22:18;9.50;72.00
3912;DHT22;1971;51.778;10.330;2022-11-15T03:25:22;9.50;70.90
3912;DHT22;1971;51.778;10.330;2022-11-15T03:28:17;9.40;73.70
3912;DHT22;1971;51.778;10.330;2022-11-15T03:31:10;9.30;79.30
3912;DHT22;1971;51.778;10.330;2022-11-15T03:34:19;9.20;86.10
3912;DHT22;1971;51.778;10.330;2022-11-15T03:37:11;9.10;83.70
3912;DHT22;1971;51.778;10.330;2022-11-15T03:40:02;9.10;91.90
3912;DHT22;1971;51.778;10.330;2022-11-15T03:43:00;9.10;92.80
3912;DHT22;1971;51.778;10.330;2022-11-15T03:45:53;9.00;94.00
3912;DHT22;1971;51.778;10.330;2022-11-15T03:48:50;9.30;97.10
3912;DHT22;1971;51.778;10.330;2022-11-15T03:51:40;9.00;98.10
3912;DHT22;1971;51.778;10.330;2022-11-15T03:54:29;9.00;99.90
3912;DHT22;1971;51.778;10.330;2022-11-15T03:57:18;9.00;99.90
3912;DHT22;1971;51.778;10.330;2022-11-15T04:00:10;8.90;99.90
3912;DHT22;1971;51.778;10.330;2022-11-15T04:03:00;9.00;99.90
3912;DHT22;1971;51.778;10.330;2022-11-15T04:05:49;8.90;98.10
3912;DHT22;1971;51.778;10.330;2022-11-15T04:08:38;9.00;99.90
3912;DHT22;1971;51.778;10.330;2022-11-15T04:11:27;8.70;99.90
3912;DHT22;1971;51.778;10.330;2022-11-15T04:14:16;8.70;99.90
3912;DHT22;1971;51.778;10.330;2022-11-15T04:17:08;9.10;99.90
3912;DHT22;1971;51.778;10.330;2022-11-15T04:19:57;8.70;99.90
3912;DHT22;1971;51.778;10.330;2022-11-15T04:22:59;8.80;99.90
3912;DHT22;1971;51.778;10.330;2022-11-15T04:26:02;8.90;99.90
3912;DHT22;1971;51.778;10.330;2022-11-15T04:28:53;8.80;99.90
3912;DHT22;1971;51.778;10.330;2022-11-15T04:31:54;8.70;99.90
3912;DHT22;1971;51.778;10.330;2022-11-15T04:34:45;8.70;99.90
3912;DHT22;1971;51.778;10.330;2022-11-15T04:37:33;9.10;99.90
3912;DHT22;1971;51.778;10.330;2022-11-15T04:40:19;8.80;99.90
3912;DHT22;1971;51.778;10.330;2022-11-15T04:43:07;8.70;99.90
3912;DHT22;1971;51.778;10.330;2022-11-15T04:45:56;8.80;99.90
3912;DHT22;1971;51.778;10.330;2022-11-15T04:48:45;8.40;99.90
3912;DHT22;1971;51.778;10.330;2022-11-15T04:51:45;8.80;99.90
3912;DHT22;1971;51.778;10.330;2022-11-15T04:54:34;8.50;99.90
3912;DHT22;1971;51.778;10.330;2022-11-15T04:57:24;8.60;99.90
3912;DHT22;1971;51.778;10.330;2022-11-15T05:00:16;8.40;99.90
3912;DHT22;1971;51.778;10.330;2022-11-15T05:03:04;8.30;99.90
3912;DHT22;1971;51.778;10.330;2022-11-15T05:06:06;8.70;99.90
3912;DHT22;1971;51.778;10.330;2022-11-15T05:08:58;8.50;99.90
3912;DHT22;1971;51.778;10.330;2022-11-15T05:11:48;8.60;99.90
3912;DHT22;1971;51.778;10.330;2022-11-15T05:14:36;8.50;99.90
3912;DHT22;1971;51.778;10.330;2022-11-15T05:17:24;8.40;99.90
3912;DHT22;1971;51.778;10.330;2022-11-15T05:20:13;8.40;99.90
3912;DHT22;1971;51.778;10.330;2022-11-15T05:23:02;8.40;99.90
3912;DHT22;1971;51.778;10.330;2022-11-15T05:25:58;8.50;99.90
3912;DHT22;1971;51.778;10.330;2022-11-15T05:28:53;8.40;99.90
3912;DHT22;1971;51.778;10.330;2022-11-15T05:31:43;8.50;99.90
3912;DHT22;1971;51.778;10.330;2022-11-15T05:34:31;8.60;99.90
3912;DHT22;1971;51.778;10.330;2022-11-15T05:37:20;8.60;99.90
3912;DHT22;1971;51.778;10.330;2022-11-15T05:40:09;8.60;99.90
3912;DHT22;1971;51.778;10.330;2022-11-15T05:43:02;8.60;99.90
3912;DHT22;1971;51.778;10.330;2022-11-15T05:45:53;8.70;99.90
3912;DHT22;1971;51.778;10.330;2022-11-15T05:48:44;8.70;99.90
3912;DHT22;1971;51.778;10.330;2022-11-15T05:51:34;9.00;99.90
3912;DHT22;1971;51.778;10.330;2022-11-15T05:54:24;8.70;99.90
3912;DHT22;1971;51.778;10.330;2022-11-15T05:57:13;8.70;99.90
3912;DHT22;1971;51.778;10.330;2022-11-15T06:00:07;8.70;99.90
3912;DHT22;1971;51.778;10.330;2022-11-15T06:02:56;8.70;99.90
3912;DHT22;1971;51.778;10.330;2022-11-15T06:05:45;8.70;99.90
3912;DHT22;1971;51.778;10.330;2022-11-15T06:08:34;8.60;99.90
3912;DHT22;1971;51.778;10.330;2022-11-15T06:11:23;9.10;99.90
3912;DHT22;1971;51.778;10.330;2022-11-15T06:14:12;9.00;99.90
3912;DHT22;1971;51.778;10.330;2022-11-15T06:17:03;9.00;99.90
3912;DHT22;1971;51.778;10.330;2022-11-15T06:19:55;9.10;99.90
3912;DHT22;1971;51.778;10.330;2022-11-15T06:22:45;9.10;99.90
3912;DHT22;1971;51.778;10.330;2022-11-15T06:25:34;9.10;99.90
3912;DHT22;1971;51.778;10.330;2022-11-15T06:28:22;9.10;99.90
3912;DHT22;1971;51.778;10.330;2022-11-15T06:31:12;9.10;99.90
3912;DHT22;1971;51.778;10.330;2022-11-15T06:34:04;9.10;99.90
3912;DHT22;1971;51.778;10.330;2022-11-15T06:36:52;9.10;99.90
3912;DHT22;1971;51.778;10.330;2022-11-15T06:39:41;9.10;99.90
3912;DHT22;1971;51.778;10.330;2022-11-15T06:42:31;9.20;99.90
3912;DHT22;1971;51.778;10.330;2022-11-15T06:45:20;9.20;99.90
3912;DHT22;1971;51.778;10.330;2022-11-15T06:48:09;9.20;99.90
3912;DHT22;1971;51.778;10.330;2022-11-15T06:51:02;9.20;99.90
3912;DHT22;1971;51.778;10.330;2022-11-15T06:53:50;9.30;99.90
3912;DHT22;1971;51.778;10.330;2022-11-15T06:56:39;9.30;99.90
3912;DHT22;1971;51.778;10.330;2022-11-15T06:59:27;9.40;99.90
3912;DHT22;1971;51.778;10.330;2022-11-15T07:02:25;9.40;99.90
3912;DHT22;1971;51.778;10.330;2022-11-15T07:05:14;9.60;99.90
3912;DHT22;1971;51.778;10.330;2022-11-15T07:08:06;9.40;99.90
3912;DHT22;1971;51.778;10.330;2022-11-15T07:10:57;9.40;99.90
3912;DHT22;1971;51.778;10.330;2022-11-15T07:13:47;9.50;99.90
3912;DHT22;1971;51.778;10.330;2022-11-15T07:16:36;9.50;99.90
3912;DHT22;1971;51.778;10.330;2022-11-15T07:19:25;9.50;99.90
3912;DHT22;1971;51.778;10.330;2022-11-15T07:22:14;9.50;99.90
3912;DHT22;1971;51.778;10.330;2022-11-15T07:25:06;9.60;99.90
3912;DHT22;1971;51.778;10.330;2022-11-15T07:27:56;9.60;99.90
3912;DHT22;1971;51.778;10.330;2022-11-15T07:30:46;9.60;99.90
3912;DHT22;1971;51.778;10.330;2022-11-15T07:33:34;9.50;99.90
3912;DHT22;1971;51.778;10.330;2022-11-15T07:36:23;9.60;99.90
3912;DHT22;1971;51.778;10.330;2022-11-15T07:39:11;9.60;99.90
3912;DHT22;1971;51.778;10.330;2022-11-15T07:42:03;9.60;99.90
3912;DHT22;1971;51.778;10.330;2022-11-15T07:45:05;9.60;99.90
3912;DHT22;1971;51.778;10.330;2022-11-15T07:47:57;9.50;99.90
3912;DHT22;1971;51.778;10.330;2022-11-15T07:50:45;9.70;99.90
3912;DHT22;1971;51.778;10.330;2022-11-15T07:53:34;9.70;99.90
3912;DHT22;1971;51.778;10.330;2022-11-15T07:56:23;9.80;99.90
3912;DHT22;1971;51.778;10.330;2022-11-15T07:59:14;9.90;99.90
3912;DHT22;1971;51.778;10.330;2022-11-15T08:02:04;9.90;99.90
3912;DHT22;1971;51.778;10.330;2022-11-15T08:04:53;9.80;99.90
3912;DHT22;1971;51.778;10.330;2022-11-15T08:07:45;10.30;99.90
3912;DHT22;1971;51.778;10.330;2022-11-15T08:10:38;10.10;90.20
3912;DHT22;1971;51.778;10.330;2022-11-15T08:13:27;10.10;79.70
3912;DHT22;1971;51.778;10.330;2022-11-15T08:16:19;10.20;73.00
3912;DHT22;1971;51.778;10.330;2022-11-15T08:19:08;10.30;69.80
3912;DHT22;1971;51.778;10.330;2022-11-15T08:21:57;10.30;59.00
3912;DHT22;1971;51.778;10.330;2022-11-15T08:24:46;10.20;43.10
3912;DHT22;1971;51.778;10.330;2022-11-15T08:27:36;10.40;35.90
3912;DHT22;1971;51.778;10.330;2022-11-15T08:30:25;10.40;35.30
3912;DHT22;1971;51.778;10.330;2022-11-15T08:33:16;10.10;32.10
3912;DHT22;1971;51.778;10.330;2022-11-15T08:36:06;10.10;38.50
3912;DHT22;1971;51.778;10.330;2022-11-15T08:38:54;10.00;39.60
3912;DHT22;1971;51.778;10.330;2022-11-15T08:41:44;10.30;46.50
3912;DHT22;1971;51.778;10.330;2022-11-15T08:44:34;10.00;48.60
3912;DHT22;1971;51.778;10.330;2022-11-15T08:47:23;10.10;65.30
3912;DHT22;1971;51.778;10.330;2022-11-15T08:50:16;9.90;68.80
3912;DHT22;1971;51.778;10.330;2022-11-15T08:53:05;9.90;69.60
3912;DHT22;1971;51.778;10.330;2022-11-15T08:55:54;9.90;74.50
3912;DHT22;1971;51.778;10.330;2022-11-15T08:58:43;9.90;79.60
3912;DHT22;1971;51.778;10.330;2022-11-15T09:01:33;10.00;77.20
3912;DHT22;1971;51.778;10.330;2022-11-15T09:04:23;10.10;79.80
3912;DHT22;1971;51.778;10.330;2022-11-15T09:07:16;10.10;67.50
3912;DHT22;1971;51.778;10.330;2022-11-15T09:10:05;10.20;67.80
3912;DHT22;1971;51.778;10.330;2022-11-15T09:12:56;10.30;50.40
3912;DHT22;1971;51.778;10.330;2022-11-15T09:15:46;10.80;47.00
3912;DHT22;1971;51.778;10.330;2022-11-15T09:18:35;10.40;36.20
3912;DHT22;1971;51.778;10.330;2022-11-15T09:21:23;10.30;24.90
3912;DHT22;1971;51.778;10.330;2022-11-15T09:24:15;10.30;16.50
3912;DHT22;1971;51.778;10.330;2022-11-15T09:27:04;10.20;17.00
3912;DHT22;1971;51.778;10.330;2022-11-15T09:29:52;10.30;14.30
3912;DHT22;1971;51.778;10.330;2022-11-15T09:32:42;10.50;25.70
3912;DHT22;1971;51.778;10.330;2022-11-15T09:35:31;10.60;3.80
3912;DHT22;1971;51.778;10.330;2022-11-15T09:38:21;10.60;1.00
3912;DHT22;1971;51.778;10.330;2022-11-15T09:44:48;10.30;9.20
3912;DHT22;1971;51.778;10.330;2022-11-15T09:48:04;10.60;6.80
3912;DHT22;1971;51.778;10.330;2022-11-15T09:51:04;10.70;8.00
3912;DHT22;1971;51.778;10.330;2022-11-15T09:53:42;11.30;1.50
3912;DHT22;1971;51.778;10.330;2022-11-15T09:57:31;11.10;1.00
3912;DHT22;1971;51.778;10.330;2022-11-15T10:00:19;11.20;1.00
3912;DHT22;1971;51.778;10.330;2022-11-15T10:03:20;11.20;1.00
3912;DHT22;1971;51.778;10.330;2022-11-15T10:05:57;11.30;1.00
3912;DHT22;1971;51.778;10.330;2022-11-15T10:08:53;11.40;1.00
3912;DHT22;1971;51.778;10.330;2022-11-15T10:11:27;11.30;1.00
3912;DHT22;1971;51.778;10.330;2022-11-15T10:14:45;11.60;1.00
3912;DHT22;1971;51.778;10.330;2022-11-15T10:17:50;11.70;1.00
3912;DHT22;1971;51.778;10.330;2022-11-15T10:20:27;11.80;1.00
3912;DHT22;1971;51.778;10.330;2022-11-15T10:23:00;11.90;1.00
3912;DHT22;1971;51.778;10.330;2022-11-15T10:25:32;11.90;1.00
3912;DHT22;1971;51.778;10.330;2022-11-15T10:28:11;12.00;1.00
3912;DHT22;1971;51.778;10.330;2022-11-15T10:31:20;12.10;1.00
3912;DHT22;1971;51.778;10.330;2022-11-15T10:34:08;12.10;1.00
3912;DHT22;1971;51.778;10.330;2022-11-15T10:36:46;12.20;1.00
3912;DHT22;1971;51.778;10.330;2022-11-15T10:39:23;12.20;1.00
3912;DHT22;1971;51.778;10.330;2022-11-15T10:42:14;12.30;1.00
3912;DHT22;1971;51.778;10.330;2022-11-15T10:44:46;12.30;1.00
3912;DHT22;1971;51.778;10.330;2022-11-15T10:47:30;12.30;1.00
3912;DHT22;1971;51.778;10.330;2022-11-15T10:50:30;12.60;1.00
3912;DHT22;1971;51.778;10.330;2022-11-15T10:53:02;12.70;1.00
3912;DHT22;1971;51.778;10.330;2022-11-15T10:55:32;12.90;1.00
3912;DHT22;1971;51.778;10.330;2022-11-15T10:58:09;12.90;1.00
3912;DHT22;1971;51.778;10.330;2022-11-15T11:00:53;12.60;1.00
3912;DHT22;1971;51.778;10.330;2022-11-15T11:03:35;12.30;1.00
3912;DHT22;1971;51.778;10.330;2022-11-15T11:06:09;12.10;1.00
3912;DHT22;1971;51.778;10.330;2022-11-15T11:08:40;12.10;1.00
3912;DHT22;1971;51.778;10.330;2022-11-15T11:11:23;12.00;1.00
3912;DHT22;1971;51.778;10.330;2022-11-15T11:13:54;11.80;1.00
3912;DHT22;1971;51.778;10.330;2022-11-15T11:16:41;12.00;1.00
3912;DHT22;1971;51.778;10.330;2022-11-15T11:19:42;12.10;1.00
3912;DHT22;1971;51.778;10.330;2022-11-15T11:22:22;12.10;1.00
3912;DHT22;1971;51.778;10.330;2022-11-15T11:25:18;12.30;1.00
3912;DHT22;1971;51.778;10.330;2022-11-15T11:27:59;12.10;1.00
3912;DHT22;1971;51.778;10.330;2022-11-15T11:30:42;12.30;1.00
3912;DHT22;1971;51.778;10.330;2022-11-15T11:33:19;12.40;1.00
3912;DHT22;1971;51.778;10.330;2022-11-15T11:36:03;12.40;1.00
3912;DHT22;1971;51.778;10.330;2022-11-15T11:38:59;12.50;1.00
3912;DHT22;1971;51.778;10.330;2022-11-15T11:41:55;12.60;1.00
3912;DHT22;1971;51.778;10.330;2022-11-15T11:44:46;12.60;1.00
3912;DHT22;1971;51.778;10.330;2022-11-15T11:47:21;12.60;1.00
3912;DHT22;1971;51.778;10.330;2022-11-15T11:49:57;12.40;1.00
3912;DHT22;1971;51.778;10.330;2022-11-15T11:52:38;12.00;1.00
3912;DHT22;1971;51.778;10.330;2022-11-15T11:55:16;11.80;1.00
3912;DHT22;1971;51.778;10.330;2022-11-15T11:57:51;12.00;1.00
3912;DHT22;1971;51.778;10.330;2022-11-15T12:00:24;11.80;1.00
3912;DHT22;1971;51.778;10.330;2022-11-15T12:03:05;11.70;1.00
3912;DHT22;1971;51.778;10.330;2022-11-15T12:05:41;11.80;1.00
3912;DHT22;1971;51.778;10.330;2022-11-15T12:08:39;12.10;1.00
3912;DHT22;1971;51.778;10.330;2022-11-15T12:11:16;12.30;1.00
3912;DHT22;1971;51.778;10.330;2022-11-15T12:13:56;12.50;1.00
3912;DHT22;1971;51.778;10.330;2022-11-15T12:16:29;12.50;1.00
3912;DHT22;1971;51.778;10.330;2022-11-15T12:19:03;12.50;1.00
3912;DHT22;1971;51.778;10.330;2022-11-15T12:21:39;12.40;1.00
3912;DHT22;1971;51.778;10.330;2022-11-15T12:24:18;12.40;1.00
3912;DHT22;1971;51.778;10.330;2022-11-15T12:27:06;12.30;1.00
3912;DHT22;1971;51.778;10.330;2022-11-15T12:30:21;12.40;1.00
3912;DHT22;1971;51.778;10.330;2022-11-15T12:32:57;12.20;1.00
3912;DHT22;1971;51.778;10.330;2022-11-15T12:35:57;12.20;1.00
3912;DHT22;1971;51.778;10.330;2022-11-15T12:38:54;12.30;1.00
3912;DHT22;1971;51.778;10.330;2022-11-15T12:41:32;12.20;1.00
3912;DHT22;1971;51.778;10.330;2022-11-15T12:44:04;12.30;1.00
3912;DHT22;1971;51.778;10.330;2022-11-15T12:49:49;12.30;1.00
3912;DHT22;1971;51.778;10.330;2022-11-15T12:52:19;12.20;1.00
3912;DHT22;1971;51.778;10.330;2022-11-15T12:55:28;12.10;1.00
3912;DHT22;1971;51.778;10.330;2022-11-15T12:57:54;12.10;1.00
3912;DHT22;1971;51.778;10.330;2022-11-15T13:00:45;12.00;1.00
3912;DHT22;1971;51.778;10.330;2022-11-15T13:03:27;11.90;1.00
3912;DHT22;1971;51.778;10.330;2022-11-15T13:06:08;11.90;1.00
3912;DHT22;1971;51.778;10.330;2022-11-15T13:08:47;11.90;1.00
3912;DHT22;1971;51.778;10.330;2022-11-15T13:11:50;11.90;1.00
3912;DHT22;1971;51.778;10.330;2022-11-15T13:17:35;11.90;1.00
3912;DHT22;1971;51.778;10.330;2022-11-15T13:20:22;11.90;1.00
3912;DHT22;1971;51.778;10.330;2022-11-15T13:22:59;11.80;1.00
3912;DHT22;1971;51.778;10.330;2022-11-15T13:26:10;11.80;1.00
3912;DHT22;1971;51.778;10.330;2022-11-15T13:28:54;11.80;1.00
3912;DHT22;1971;51.778;10.330;2022-11-15T13:31:28;12.00;1.00
3912;DHT22;1971;51.778;10.330;2022-11-15T13:34:13;12.00;1.00
3912;DHT22;1971;51.778;10.330;2022-11-15T13:37:12;12.00;1.00
3912;DHT22;1971;51.778;10.330;2022-11-15T13:40:15;12.10;1.00
3912;DHT22;1971;51.778;10.330;2022-11-15T13:42:51;12.10;1.00
3912;DHT22;1971;51.778;10.330;2022-11-15T13:45:21;12.10;1.00
3912;DHT22;1971;51.778;10.330;2022-11-15T13:47:54;12.20;1.00
3912;DHT22;1971;51.778;10.330;2022-11-15T13:50:31;12.20;1.00
3912;DHT22;1971;51.778;10.330;2022-11-15T13:53:03;12.20;1.00
3912;DHT22;1971;51.778;10.330;2022-11-15T13:55:35;12.30;1.00
3912;DHT22;1971;51.778;10.330;2022-11-15T13:58:08;12.30;1.00
3912;DHT22;1971;51.778;10.330;2022-11-15T14:00:42;12.10;1.00
3912;DHT22;1971;51.778;10.330;2022-11-15T14:03:17;12.20;1.00
3912;DHT22;1971;51.778;10.330;2022-11-15T14:06:05;12.10;1.00
3912;DHT22;1971;51.778;10.330;2022-11-15T14:08:39;12.10;1.00
3912;DHT22;1971;51.778;10.330;2022-11-15T14:11:15;12.00;1.00
3912;DHT22;1971;51.778;10.330;2022-11-15T14:14:14;11.90;1.00
3912;DHT22;1971;51.778;10.330;2022-11-15T14:16:45;11.80;1.00
3912;DHT22;1971;51.778;10.330;2022-11-15T14:19:33;11.90;1.00
3912;DHT22;1971;51.778;10.330;2022-11-15T14:22:15;12.00;1.00
3912;DHT22;1971;51.778;10.330;2022-11-15T14:25:13;12.10;1.00
3912;DHT22;1971;51.778;10.330;2022-11-15T14:28:15;12.00;1.00
3912;DHT22;1971;51.778;10.330;2022-11-15T14:30:58;12.00;1.00
3912;DHT22;1971;51.778;10.330;2022-11-15T14:33:36;12.00;1.00
3912;DHT22;1971;51.778;10.330;2022-11-15T14:36:33;12.00;1.00
3912;DHT22;1971;51.778;10.330;2022-11-15T14:47:16;11.80;1.00
3912;DHT22;1971;51.778;10.330;2022-11-15T14:51:12;11.80;1.00
3912;DHT22;1971;51.778;10.330;2022-11-15T14:55:10;11.70;1.00
3912;DHT22;1971;51.778;10.330;2022-11-15T15:03:45;11.50;1.00
3912;DHT22;1971;51.778;10.330;2022-11-15T15:10:30;11.40;1.00
3912;DHT22;1971;51.778;10.330;2022-11-15T15:13:50;11.30;1.00
3912;DHT22;1971;51.778;10.330;2022-11-15T15:17:16;11.30;1.00
3912;DHT22;1971;51.778;10.330;2022-11-15T15:20:10;11.30;1.00
3912;DHT22;1971;51.778;10.330;2022-11-15T15:23:36;11.20;1.00
3912;DHT22;1971;51.778;10.330;2022-11-15T15:26:33;11.10;1.00
3912;DHT22;1971;51.778;10.330;2022-11-15T15:29:23;11.00;1.00
3912;DHT22;1971;51.778;10.330;2022-11-15T15:32:19;11.00;1.00
3912;DHT22;1971;51.778;10.330;2022-11-15T15:38:35;10.90;1.00
3912;DHT22;1971;51.778;10.330;2022-11-15T15:41:33;10.90;1.00
3912;DHT22;1971;51.778;10.330;2022-11-15T15:44:13;10.90;1.00
3912;DHT22;1971;51.778;10.330;2022-11-15T15:46:44;10.90;1.00
3912;DHT22;1971;51.778;10.330;2022-11-15T15:49:27;10.90;1.00
3912;DHT22;1971;51.778;10.330;2022-11-15T15:52:38;10.90;1.00
3912;DHT22;1971;51.778;10.330;2022-11-15T15:55:14;10.90;1.00
3912;DHT22;1971;51.778;10.330;2022-11-15T15:58:05;10.90;1.00
3912;DHT22;1971;51.778;10.330;2022-11-15T16:00:52;10.90;1.00
3912;DHT22;1971;51.778;10.330;2022-11-15T16:03:30;11.00;1.00
3912;DHT22;1971;51.778;10.330;2022-11-15T16:06:35;11.00;1.00
3912;DHT22;1971;51.778;10.330;2022-11-15T16:09:43;11.00;1.00
3912;DHT22;1971;51.778;10.330;2022-11-15T16:13:29;11.00;1.00
3912;DHT22;1971;51.778;10.330;2022-11-15T16:19:21;11.00;1.00
3912;DHT22;1971;51.778;10.330;2022-11-15T16:22:00;11.00;1.00
3912;DHT22;1971;51.778;10.330;2022-11-15T16:24:37;11.00;1.00
3912;DHT22;1971;51.778;10.330;2022-11-15T16:27:25;11.00;1.00
3912;DHT22;1971;51.778;10.330;2022-11-15T16:30:30;11.00;1.00
3912;DHT22;1971;51.778;10.330;2022-11-15T16:33:01;11.00;1.00
3912;DHT22;1971;51.778;10.330;2022-11-15T16:35:33;11.00;1.00
3912;DHT22;1971;51.778;10.330;2022-11-15T16:38:04;11.00;1.00
3912;DHT22;1971;51.778;10.330;2022-11-15T16:40:35;11.00;1.00
3912;DHT22;1971;51.778;10.330;2022-11-15T16:43:05;11.10;1.00
3912;DHT22;1971;51.778;10.330;2022-11-15T16:45:39;11.00;1.00
3912;DHT22;1971;51.778;10.330;2022-11-15T16:48:21;11.00;1.00
3912;DHT22;1971;51.778;10.330;2022-11-15T16:50:54;11.00;1.00
3912;DHT22;1971;51.778;10.330;2022-11-15T16:53:26;11.00;1.00
3912;DHT22;1971;51.778;10.330;2022-11-15T16:55:56;11.00;1.00
3912;DHT22;1971;51.778;10.330;2022-11-15T16:58:27;11.00;1.00
3912;DHT22;1971;51.778;10.330;2022-11-15T17:01:02;11.00;1.00
3912;DHT22;1971;51.778;10.330;2022-11-15T17:03:33;11.00;1.00
3912;DHT22;1971;51.778;10.330;2022-11-15T17:06:06;11.00;1.00
3912;DHT22;1971;51.778;10.330;2022-11-15T17:08:37;11.00;1.00
3912;DHT22;1971;51.778;10.330;2022-11-15T17:11:10;10.90;1.00
3912;DHT22;1971;51.778;10.330;2022-11-15T17:13:45;10.80;1.00
3912;DHT22;1971;51.778;10.330;2022-11-15T17:16:19;10.80;1.00
3912;DHT22;1971;51.778;10.330;2022-11-15T17:18:50;10.80;1.00
3912;DHT22;1971;51.778;10.330;2022-11-15T17:21:21;10.80;1.00
3912;DHT22;1971;51.778;10.330;2022-11-15T17:23:59;10.80;1.00
3912;DHT22;1971;51.778;10.330;2022-11-15T17:26:31;10.80;1.00
3912;DHT22;1971;51.778;10.330;2022-11-15T17:29:07;10.80;1.00
3912;DHT22;1971;51.778;10.330;2022-11-15T17:31:39;10.80;1.00
3912;DHT22;1971;51.778;10.330;2022-11-15T17:34:11;10.80;1.00
3912;DHT22;1971;51.778;10.330;2022-11-15T17:36:41;10.70;1.00
3912;DHT22;1971;51.778;10.330;2022-11-15T17:39:12;10.70;1.00
3912;DHT22;1971;51.778;10.330;2022-11-15T17:41:45;10.70;1.00
3912;DHT22;1971;51.778;10.330;2022-11-15T17:44:16;10.80;1.00
3912;DHT22;1971;51.778;10.330;2022-11-15T17:46:52;10.80;1.00
3912;DHT22;1971;51.778;10.330;2022-11-15T17:49:23;10.80;1.00
3912;DHT22;1971;51.778;10.330;2022-11-15T17:51:53;10.80;1.00
3912;DHT22;1971;51.778;10.330;2022-11-15T17:54:23;10.80;1.00
3912;DHT22;1971;51.778;10.330;2022-11-15T17:56:54;10.90;1.00
3912;DHT22;1971;51.778;10.330;2022-11-15T17:59:25;10.80;1.00
3912;DHT22;1971;51.778;10.330;2022-11-15T18:01:59;10.80;1.00
3912;DHT22;1971;51.778;10.330;2022-11-15T18:04:34;10.90;1.00
3912;DHT22;1971;51.778;10.330;2022-11-15T18:07:11;10.90;1.00
3912;DHT22;1971;51.778;10.330;2022-11-15T18:09:56;10.80;1.00
3912;DHT22;1971;51.778;10.330;2022-11-15T18:12:27;10.90;1.00
3912;DHT22;1971;51.778;10.330;2022-11-15T18:14:58;10.90;1.00
3912;DHT22;1971;51.778;10.330;2022-11-15T18:17:32;10.90;1.00
3912;DHT22;1971;51.778;10.330;2022-11-15T18:20:05;10.90;1.00
3912;DHT22;1971;51.778;10.330;2022-11-15T18:22:41;10.90;1.00
3912;DHT22;1971;51.778;10.330;2022-11-15T18:25:14;10.90;1.00
3912;DHT22;1971;51.778;10.330;2022-11-15T18:27:45;10.90;1.00
3912;DHT22;1971;51.778;10.330;2022-11-15T18:30:24;10.90;1.00
3912;DHT22;1971;51.778;10.330;2022-11-15T18:32:59;10.90;1.00
3912;DHT22;1971;51.778;10.330;2022-11-15T18:35:30;10.80;1.00
3912;DHT22;1971;51.778;10.330;2022-11-15T18:38:00;10.90;1.00
3912;DHT22;1971;51.778;10.330;2022-11-15T18:40:31;10.90;1.00
3912;DHT22;1971;51.778;10.330;2022-11-15T18:43:02;10.90;1.00
3912;DHT22;1971;51.778;10.330;2022-11-15T18:45:33;10.90;1.00
3912;DHT22;1971;51.778;10.330;2022-11-15T18:48:10;10.80;1.00
3912;DHT22;1971;51.778;10.330;2022-11-15T18:50:42;10.80;1.00
3912;DHT22;1971;51.778;10.330;2022-11-15T18:53:15;10.80;1.00